createdAt,value
2017-03-23T00:00:30.248Z,0
2017-03-23T00:01:30.273Z,0
2017-03-23T00:02:29.916Z,0
2017-03-23T00:03:30.326Z,0
2017-03-23T00:04:30.354Z,0
2017-03-23T00:05:30.379Z,0
2017-03-23T00:06:30.413Z,0
2017-03-23T00:07:30.065Z,0
2017-03-23T00:08:30.142Z,0
2017-03-23T00:09:30.163Z,0
2017-03-23T00:10:29.889Z,0
2017-03-23T00:11:30.236Z,0
2017-03-23T00:12:30.202Z,0
2017-03-23T00:13:30.609Z,0
2017-03-23T00:14:30.621Z,0
2017-03-23T00:15:30.338Z,0
2017-03-23T00:16:30.364Z,0
2017-03-23T00:17:30.959Z,0
2017-03-23T00:18:30.738Z,0
2017-03-23T00:19:30.454Z,0
2017-03-23T00:20:30.474Z,0
2017-03-23T00:21:30.808Z,0
2017-03-23T00:22:31.093Z,0
2017-03-23T00:23:29.926Z,0
2017-03-23T00:24:30.886Z,0
2017-03-23T00:25:30.914Z,0
2017-03-23T00:26:30.007Z,0
2017-03-23T00:27:31.216Z,0
2017-03-23T00:28:31.000Z,0
2017-03-23T00:29:30.717Z,0
2017-03-23T00:30:31.054Z,0
2017-03-23T00:31:30.768Z,0
2017-03-23T00:32:30.483Z,0
2017-03-23T00:33:31.089Z,0
2017-03-23T00:34:31.162Z,0
2017-03-23T00:35:30.868Z,0
2017-03-23T00:36:30.907Z,0
2017-03-23T00:37:30.618Z,0
2017-03-23T00:38:31.524Z,0
2017-03-23T00:39:31.302Z,0
2017-03-23T00:40:30.701Z,0
2017-03-23T00:41:31.053Z,0
2017-03-23T00:42:31.380Z,0
2017-03-23T00:43:31.668Z,0
2017-03-23T00:44:31.422Z,0
2017-03-23T00:45:31.147Z,0
2017-03-23T00:46:31.185Z,0
2017-03-23T00:47:31.212Z,0
2017-03-23T00:48:31.168Z,0
2017-03-23T00:49:31.252Z,0
2017-03-23T00:50:31.600Z,0
2017-03-23T00:51:31.306Z,0
2017-03-23T00:52:31.339Z,0
2017-03-23T00:53:31.927Z,0
2017-03-23T00:54:31.388Z,0
2017-03-23T00:55:31.406Z,0
2017-03-23T00:56:31.757Z,0
2017-03-23T00:57:31.159Z,0
2017-03-23T00:58:32.058Z,0
2017-03-23T00:59:31.840Z,0
2017-03-23T01:00:31.864Z,0
2017-03-23T01:01:31.581Z,0
2017-03-23T01:02:31.614Z,0
2017-03-23T01:03:32.206Z,0
2017-03-23T01:04:31.659Z,0
2017-03-23T01:05:31.996Z,0
2017-03-23T01:06:32.037Z,0
2017-03-23T01:07:31.749Z,0
2017-03-23T01:08:32.343Z,0
2017-03-23T01:09:31.792Z,0
2017-03-23T01:10:31.512Z,0
2017-03-23T01:11:32.158Z,0
2017-03-23T01:12:32.190Z,0
2017-03-23T01:13:32.512Z,0
2017-03-23T01:14:32.230Z,0
2017-03-23T01:15:32.264Z,0
2017-03-23T01:16:32.286Z,0
2017-03-23T01:17:32.330Z,0
2017-03-23T01:18:31.974Z,0
2017-03-23T01:19:32.378Z,0
2017-03-23T01:20:31.767Z,0
2017-03-23T01:21:32.432Z,0
2017-03-23T01:22:31.832Z,0
2017-03-23T01:23:32.098Z,0
2017-03-23T01:24:32.200Z,0
2017-03-23T01:25:31.910Z,0
2017-03-23T01:26:32.572Z,0
2017-03-23T01:27:32.596Z,0
2017-03-23T01:28:32.245Z,0
2017-03-23T01:29:32.647Z,0
2017-03-23T01:30:32.355Z,0
2017-03-23T01:31:32.387Z,0
2017-03-23T01:32:32.108Z,0
2017-03-23T01:33:32.701Z,0
2017-03-23T01:34:32.462Z,0
2017-03-23T01:35:32.803Z,0
2017-03-23T01:36:32.824Z,0
2017-03-23T01:37:32.541Z,0
2017-03-23T01:38:32.509Z,0
2017-03-23T01:39:32.633Z,0
2017-03-23T01:40:32.939Z,0
2017-03-23T01:41:32.648Z,0
2017-03-23T01:42:31.740Z,0
2017-03-23T01:43:33.264Z,0
2017-03-23T01:44:32.734Z,0
2017-03-23T01:45:32.755Z,0
2017-03-23T01:46:32.794Z,0
2017-03-23T01:47:32.824Z,0
2017-03-23T01:48:32.788Z,0
2017-03-23T01:49:32.862Z,0
2017-03-23T01:50:32.899Z,0
2017-03-23T01:51:32.931Z,0
2017-03-23T01:52:32.950Z,0
2017-03-23T01:53:33.215Z,0
2017-03-23T01:54:33.309Z,0
2017-03-23T01:55:33.070Z,0
2017-03-23T01:56:32.738Z,0
2017-03-23T01:57:33.087Z,0
2017-03-23T01:58:33.351Z,0
2017-03-23T01:59:33.440Z,0
2017-03-23T02:00:33.169Z,0
2017-03-23T02:01:32.878Z,0
2017-03-23T02:02:33.535Z,0
2017-03-23T02:03:33.495Z,0
2017-03-23T02:04:33.577Z,0
2017-03-23T02:05:33.301Z,0
2017-03-23T02:06:33.622Z,0
2017-03-23T02:07:33.662Z,0
2017-03-23T02:08:33.929Z,0
2017-03-23T02:09:33.088Z,0
2017-03-23T02:10:33.112Z,0
2017-03-23T02:11:33.458Z,0
2017-03-23T02:12:33.167Z,0
2017-03-23T02:13:34.082Z,0
2017-03-23T02:14:33.528Z,0
2017-03-23T02:15:33.560Z,0
2017-03-23T02:16:33.590Z,0
2017-03-23T02:17:33.609Z,0
2017-03-23T02:18:33.899Z,0
2017-03-23T02:19:33.983Z,0
2017-03-23T02:20:33.697Z,0
2017-03-23T02:21:33.729Z,0
2017-03-23T02:22:34.053Z,0
2017-03-23T02:23:34.335Z,0
2017-03-23T02:24:33.800Z,0
2017-03-23T02:25:33.826Z,0
2017-03-23T02:26:34.165Z,0
2017-03-23T02:27:33.870Z,0
2017-03-23T02:28:34.470Z,0
2017-03-23T02:29:33.951Z,0
2017-03-23T02:30:34.299Z,0
2017-03-23T02:31:33.989Z,0
2017-03-23T02:32:34.325Z,0
2017-03-23T02:33:34.610Z,0
2017-03-23T02:34:34.068Z,0
2017-03-23T02:35:33.788Z,0
2017-03-23T02:36:34.116Z,0
2017-03-23T02:37:34.149Z,0
2017-03-23T02:38:34.740Z,0
2017-03-23T02:39:33.883Z,0
2017-03-23T02:40:34.542Z,0
2017-03-23T02:41:34.257Z,0
2017-03-23T02:42:34.282Z,0
2017-03-23T02:43:34.552Z,0
2017-03-23T02:44:34.334Z,0
2017-03-23T02:45:34.367Z,0
2017-03-23T02:46:33.769Z,0
2017-03-23T02:47:34.424Z,0
2017-03-23T02:48:34.992Z,0
2017-03-23T02:49:34.509Z,0
2017-03-23T02:50:34.810Z,0
2017-03-23T02:51:34.519Z,0
2017-03-23T02:52:34.875Z,0
2017-03-23T02:53:35.128Z,0
2017-03-23T02:54:34.910Z,0
2017-03-23T02:55:34.630Z,0
2017-03-23T02:56:34.967Z,0
2017-03-23T02:57:34.684Z,0
2017-03-23T02:58:35.152Z,0
2017-03-23T02:59:34.724Z,0
2017-03-23T03:00:34.751Z,0
2017-03-23T03:01:34.787Z,0
2017-03-23T03:02:35.126Z,0
2017-03-23T03:03:35.407Z,0
2017-03-23T03:04:34.864Z,0
2017-03-23T03:05:35.206Z,0
2017-03-23T03:06:34.607Z,0
2017-03-23T03:07:35.243Z,0
2017-03-23T03:08:34.644Z,0
2017-03-23T03:09:34.940Z,0
2017-03-23T03:10:35.029Z,0
2017-03-23T03:11:35.046Z,0
2017-03-23T03:12:35.398Z,0
2017-03-23T03:13:35.107Z,0
2017-03-23T03:14:35.073Z,0
2017-03-23T03:15:35.153Z,0
2017-03-23T03:16:35.191Z,0
2017-03-23T03:17:35.215Z,0
2017-03-23T03:18:35.235Z,0
2017-03-23T03:19:35.204Z,0
2017-03-23T03:20:35.297Z,0
2017-03-23T03:21:35.326Z,0
2017-03-23T03:22:35.349Z,0
2017-03-23T03:23:35.058Z,0
2017-03-23T03:24:35.961Z,0
2017-03-23T03:25:35.429Z,0
2017-03-23T03:26:35.139Z,0
2017-03-23T03:27:35.478Z,0
2017-03-23T03:28:35.504Z,0
2017-03-23T03:29:35.780Z,0
2017-03-23T03:30:35.869Z,0
2017-03-23T03:31:35.582Z,0
2017-03-23T03:32:35.598Z,0
2017-03-23T03:33:35.938Z,0
2017-03-23T03:34:36.224Z,0
2017-03-23T03:35:36.013Z,0
2017-03-23T03:36:35.709Z,0
2017-03-23T03:37:35.745Z,0
2017-03-23T03:38:35.762Z,0
2017-03-23T03:39:36.360Z,0
2017-03-23T03:40:35.820Z,0
2017-03-23T03:41:36.148Z,0
2017-03-23T03:42:36.174Z,0
2017-03-23T03:43:36.212Z,0
2017-03-23T03:44:35.867Z,0
2017-03-23T03:45:35.640Z,0
2017-03-23T03:46:36.288Z,0
2017-03-23T03:47:36.013Z,0
2017-03-23T03:48:36.034Z,0
2017-03-23T03:49:36.614Z,0
2017-03-23T03:50:35.772Z,0
2017-03-23T03:51:36.155Z,0
2017-03-23T03:52:36.134Z,0
2017-03-23T03:53:36.157Z,0
2017-03-23T03:54:36.430Z,0
2017-03-23T03:55:36.566Z,0
2017-03-23T03:56:35.924Z,0
2017-03-23T03:57:36.572Z,0
2017-03-23T03:58:36.323Z,0
2017-03-23T03:59:36.883Z,0
2017-03-23T04:00:36.035Z,0
2017-03-23T04:01:36.686Z,0
2017-03-23T04:02:36.711Z,0
2017-03-23T04:03:36.417Z,0
2017-03-23T04:04:37.013Z,0
2017-03-23T04:05:36.791Z,0
2017-03-23T04:06:36.498Z,0
2017-03-23T04:07:35.909Z,0
2017-03-23T04:08:36.864Z,0
2017-03-23T04:09:37.142Z,0
2017-03-23T04:10:36.302Z,0
2017-03-23T04:11:36.967Z,0
2017-03-23T04:12:36.668Z,0
2017-03-23T04:13:36.996Z,0
2017-03-23T04:14:36.668Z,0
2017-03-23T04:15:36.738Z,0
2017-03-23T04:16:36.466Z,0
2017-03-23T04:17:36.171Z,0
2017-03-23T04:18:36.816Z,0
2017-03-23T04:19:37.413Z,0
2017-03-23T04:20:36.554Z,0
2017-03-23T04:21:37.217Z,0
2017-03-23T04:22:36.618Z,0
2017-03-23T04:23:37.268Z,0
2017-03-23T04:24:37.560Z,0
2017-03-23T04:25:36.726Z,0
2017-03-23T04:26:37.358Z,0
2017-03-23T04:27:37.383Z,0
2017-03-23T04:28:37.396Z,0
2017-03-23T04:29:37.364Z,0
2017-03-23T04:30:37.458Z,0
2017-03-23T04:31:37.167Z,0
2017-03-23T04:32:37.502Z,0
2017-03-23T04:33:37.530Z,0
2017-03-23T04:34:37.803Z,0
2017-03-23T04:35:37.577Z,0
2017-03-23T04:36:36.978Z,0
2017-03-23T04:37:37.326Z,0
2017-03-23T04:38:37.361Z,0
2017-03-23T04:39:37.056Z,0
2017-03-23T04:40:37.653Z,0
2017-03-23T04:41:37.781Z,0
2017-03-23T04:42:37.778Z,0
2017-03-23T04:43:37.478Z,0
2017-03-23T04:44:37.195Z,0
2017-03-23T04:45:37.472Z,0
2017-03-23T04:46:37.861Z,0
2017-03-23T04:47:37.585Z,0
2017-03-23T04:48:37.606Z,0
2017-03-23T04:49:37.315Z,0
2017-03-23T04:50:37.910Z,0
2017-03-23T04:51:37.373Z,0
2017-03-23T04:52:38.025Z,0
2017-03-23T04:53:37.430Z,0
2017-03-23T04:54:38.079Z,0
2017-03-23T04:55:38.043Z,0
2017-03-23T04:56:37.817Z,0
2017-03-23T04:57:38.165Z,0
2017-03-23T04:58:37.872Z,0
2017-03-23T04:59:38.218Z,0
2017-03-23T05:00:38.183Z,0
2017-03-23T05:01:37.943Z,0
2017-03-23T05:02:37.976Z,0
2017-03-23T05:03:38.317Z,0
2017-03-23T05:04:38.027Z,0
2017-03-23T05:05:38.303Z,0
2017-03-23T05:06:38.083Z,0
2017-03-23T05:07:38.417Z,0
2017-03-23T05:08:37.821Z,0
2017-03-23T05:09:37.839Z,0
2017-03-23T05:10:38.438Z,0
2017-03-23T05:11:38.210Z,0
2017-03-23T05:12:37.925Z,0
2017-03-23T05:13:37.949Z,0
2017-03-23T05:14:38.295Z,0
2017-03-23T05:15:38.877Z,0
2017-03-23T05:16:38.350Z,0
2017-03-23T05:17:38.685Z,0
2017-03-23T05:18:38.084Z,0
2017-03-23T05:19:38.737Z,0
2017-03-23T05:20:38.712Z,0
2017-03-23T05:21:38.790Z,0
2017-03-23T05:22:38.187Z,0
2017-03-23T05:23:38.207Z,0
2017-03-23T05:24:38.549Z,0
2017-03-23T05:25:38.829Z,0
2017-03-23T05:26:38.921Z,0
2017-03-23T05:27:38.946Z,0
2017-03-23T05:28:38.347Z,0
2017-03-23T05:29:38.684Z,0
2017-03-23T05:30:38.653Z,0
2017-03-23T05:31:38.750Z,0
2017-03-23T05:32:39.073Z,0
2017-03-23T05:33:39.098Z,0
2017-03-23T05:34:38.203Z,0
2017-03-23T05:35:39.405Z,0
2017-03-23T05:36:38.871Z,0
2017-03-23T05:37:39.206Z,0
2017-03-23T05:38:38.919Z,0
2017-03-23T05:39:39.263Z,0
2017-03-23T05:40:38.913Z,0
2017-03-23T05:41:39.318Z,0
2017-03-23T05:42:39.030Z,0
2017-03-23T05:43:38.739Z,0
2017-03-23T05:44:39.384Z,0
2017-03-23T05:45:39.353Z,0
2017-03-23T05:46:39.442Z,0
2017-03-23T05:47:39.153Z,0
2017-03-23T05:48:39.487Z,0
2017-03-23T05:49:39.207Z,0
2017-03-23T05:50:39.485Z,0
2017-03-23T05:51:39.581Z,0
2017-03-23T05:52:39.601Z,0
2017-03-23T05:53:39.317Z,0
2017-03-23T05:54:39.344Z,0
2017-03-23T05:55:39.935Z,0
2017-03-23T05:56:39.086Z,0
2017-03-23T05:57:39.421Z,0
2017-03-23T05:58:39.757Z,0
2017-03-23T05:59:39.475Z,0
2017-03-23T06:00:40.047Z,0
2017-03-23T06:01:38.931Z,0
2017-03-23T06:02:39.552Z,0
2017-03-23T06:03:39.577Z,0
2017-03-23T06:04:39.602Z,0
2017-03-23T06:05:40.187Z,0
2017-03-23T06:06:39.652Z,0
2017-03-23T06:07:39.684Z,0
2017-03-23T06:08:40.041Z,0
2017-03-23T06:09:40.050Z,0
2017-03-23T06:10:40.022Z,0
2017-03-23T06:11:39.487Z,5
2017-03-23T06:12:39.811Z,5
2017-03-23T06:13:40.149Z,5
2017-03-23T06:14:40.185Z,5
2017-03-23T06:15:40.455Z,5
2017-03-23T06:16:40.245Z,5
2017-03-23T06:17:40.251Z,5
2017-03-23T06:18:39.965Z,5
2017-03-23T06:19:40.005Z,5
2017-03-23T06:20:40.586Z,5
2017-03-23T06:21:40.045Z,5
2017-03-23T06:22:40.076Z,5
2017-03-23T06:23:40.425Z,5
2017-03-23T06:24:40.454Z,5
2017-03-23T06:25:40.722Z,5
2017-03-23T06:26:40.503Z,5
2017-03-23T06:27:40.220Z,5
2017-03-23T06:28:40.568Z,5
2017-03-23T06:29:40.302Z,5
2017-03-23T06:30:40.848Z,10
2017-03-23T06:31:40.318Z,10
2017-03-23T06:32:40.660Z,10
2017-03-23T06:33:40.367Z,10
2017-03-23T06:34:40.073Z,10
2017-03-23T06:35:40.671Z,15
2017-03-23T06:36:40.455Z,15
2017-03-23T06:37:40.171Z,15
2017-03-23T06:38:40.807Z,15
2017-03-23T06:39:40.844Z,15
2017-03-23T06:40:40.813Z,15
2017-03-23T06:41:40.581Z,15
2017-03-23T06:42:40.607Z,15
2017-03-23T06:43:40.631Z,15
2017-03-23T06:44:40.976Z,15
2017-03-23T06:45:41.256Z,15
2017-03-23T06:46:40.712Z,15
2017-03-23T06:47:41.059Z,15
2017-03-23T06:48:40.459Z,15
2017-03-23T06:49:40.488Z,15
2017-03-23T06:50:41.129Z,15
2017-03-23T06:51:41.408Z,15
2017-03-23T06:52:41.192Z,15
2017-03-23T06:53:40.932Z,15
2017-03-23T06:54:41.275Z,15
2017-03-23T06:55:40.957Z,15
2017-03-23T06:56:40.923Z,20
2017-03-23T06:57:41.321Z,20
2017-03-23T06:58:41.034Z,20
2017-03-23T06:59:40.748Z,15
2017-03-23T07:00:41.094Z,15
2017-03-23T07:01:41.690Z,15
2017-03-23T07:02:40.513Z,15
2017-03-23T07:03:41.477Z,15
2017-03-23T07:04:40.884Z,15
2017-03-23T07:05:41.539Z,15
2017-03-23T07:06:41.809Z,15
2017-03-23T07:07:41.589Z,15
2017-03-23T07:08:41.293Z,15
2017-03-23T07:09:41.326Z,15
2017-03-23T07:10:41.350Z,15
2017-03-23T07:11:41.950Z,15
2017-03-23T07:12:41.392Z,15
2017-03-23T07:13:41.754Z,20
2017-03-23T07:14:41.465Z,20
2017-03-23T07:15:41.490Z,20
2017-03-23T07:16:42.120Z,20
2017-03-23T07:17:41.548Z,20
2017-03-23T07:18:41.254Z,20
2017-03-23T07:19:41.283Z,20
2017-03-23T07:20:41.323Z,25
2017-03-23T07:21:41.911Z,25
2017-03-23T07:22:41.368Z,25
2017-03-23T07:23:42.021Z,30
2017-03-23T07:24:41.729Z,35
2017-03-23T07:25:41.758Z,40
2017-03-23T07:26:42.052Z,30
2017-03-23T07:27:41.812Z,15
2017-03-23T07:28:41.532Z,15
2017-03-23T07:29:41.865Z,55
2017-03-23T07:30:42.203Z,60
2017-03-23T07:31:42.179Z,20
2017-03-23T07:32:42.265Z,15
2017-03-23T07:33:41.664Z,20
2017-03-23T07:34:42.013Z,20
2017-03-23T07:35:42.077Z,20
2017-03-23T07:36:42.610Z,20
2017-03-23T07:37:42.085Z,20
2017-03-23T07:38:42.417Z,15
2017-03-23T07:39:41.824Z,20
2017-03-23T07:40:42.167Z,20
2017-03-23T07:41:42.130Z,20
2017-03-23T07:42:42.233Z,20
2017-03-23T07:43:42.257Z,20
2017-03-23T07:44:41.961Z,20
2017-03-23T07:45:42.301Z,25
2017-03-23T07:46:42.886Z,25
2017-03-23T07:47:42.663Z,30
2017-03-23T07:48:42.387Z,35
2017-03-23T07:49:42.400Z,30
2017-03-23T07:50:42.434Z,30
2017-03-23T07:51:42.714Z,25
2017-03-23T07:52:42.502Z,30
2017-03-23T07:53:42.832Z,55
2017-03-23T07:54:42.592Z,45
2017-03-23T07:55:42.577Z,55
2017-03-23T07:56:43.185Z,35
2017-03-23T07:57:42.311Z,50
2017-03-23T07:58:42.968Z,55
2017-03-23T07:59:42.700Z,40
2017-03-23T08:00:43.013Z,30
2017-03-23T08:01:42.989Z,35
2017-03-23T08:02:42.762Z,35
2017-03-23T08:03:43.120Z,45
2017-03-23T08:04:42.504Z,35
2017-03-23T08:05:43.152Z,25
2017-03-23T08:06:43.442Z,35
2017-03-23T08:07:42.586Z,30
2017-03-23T08:08:43.239Z,40
2017-03-23T08:09:42.952Z,40
2017-03-23T08:10:42.660Z,45
2017-03-23T08:11:43.271Z,35
2017-03-23T08:12:43.038Z,35
2017-03-23T08:13:43.380Z,35
2017-03-23T08:14:43.403Z,40
2017-03-23T08:15:43.133Z,30
2017-03-23T08:16:43.089Z,30
2017-03-23T08:17:43.179Z,30
2017-03-23T08:18:43.510Z,30
2017-03-23T08:19:43.543Z,30
2017-03-23T08:20:43.576Z,30
2017-03-23T08:21:43.849Z,30
2017-03-23T08:22:43.313Z,35
2017-03-23T08:23:43.031Z,40
2017-03-23T08:24:43.692Z,45
2017-03-23T08:25:43.707Z,40
2017-03-23T08:26:43.982Z,35
2017-03-23T08:27:43.442Z,35
2017-03-23T08:28:43.467Z,35
2017-03-23T08:29:43.847Z,35
2017-03-23T08:30:43.529Z,35
2017-03-23T08:31:43.798Z,40
2017-03-23T08:32:43.589Z,30
2017-03-23T08:33:43.301Z,35
2017-03-23T08:34:43.640Z,25
2017-03-23T08:35:43.676Z,25
2017-03-23T08:36:44.261Z,30
2017-03-23T08:37:43.404Z,30
2017-03-23T08:38:43.125Z,30
2017-03-23T08:39:43.774Z,30
2017-03-23T08:40:43.809Z,30
2017-03-23T08:41:43.516Z,30
2017-03-23T08:42:44.105Z,25
2017-03-23T08:43:44.201Z,30
2017-03-23T08:44:43.926Z,30
2017-03-23T08:45:43.318Z,30
2017-03-23T08:46:44.277Z,40
2017-03-23T08:47:44.560Z,45
2017-03-23T08:48:44.025Z,50
2017-03-23T08:49:44.050Z,55
2017-03-23T08:50:43.766Z,55
2017-03-23T08:51:44.107Z,65
2017-03-23T08:52:44.389Z,70
2017-03-23T08:53:43.852Z,50
2017-03-23T08:54:44.493Z,30
2017-03-23T08:55:44.209Z,25
2017-03-23T08:56:44.243Z,25
2017-03-23T08:57:44.832Z,35
2017-03-23T08:58:44.300Z,65
2017-03-23T08:59:44.645Z,35
2017-03-23T09:00:44.043Z,40
2017-03-23T09:01:44.711Z,50
2017-03-23T09:02:44.659Z,40
2017-03-23T09:03:44.432Z,40
2017-03-23T09:04:44.153Z,65
2017-03-23T09:05:44.850Z,35
2017-03-23T09:06:44.823Z,30
2017-03-23T09:07:44.796Z,50
2017-03-23T09:08:44.887Z,60
2017-03-23T09:09:43.981Z,60
2017-03-23T09:10:44.951Z,60
2017-03-23T09:11:44.961Z,55
2017-03-23T09:12:44.940Z,55
2017-03-23T09:13:44.715Z,50
2017-03-23T09:14:45.060Z,50
2017-03-23T09:15:45.122Z,45
2017-03-23T09:16:44.783Z,45
2017-03-23T09:17:44.754Z,45
2017-03-23T09:18:44.888Z,40
2017-03-23T09:19:45.178Z,40
2017-03-23T09:20:44.589Z,40
2017-03-23T09:21:44.934Z,40
2017-03-23T09:22:44.906Z,40
2017-03-23T09:23:45.304Z,40
2017-03-23T09:24:45.013Z,40
2017-03-23T09:25:45.057Z,40
2017-03-23T09:26:45.381Z,40
2017-03-23T09:27:45.354Z,40
2017-03-23T09:28:44.807Z,40
2017-03-23T09:29:45.477Z,40
2017-03-23T09:30:45.196Z,40
2017-03-23T09:31:45.214Z,40
2017-03-23T09:32:45.202Z,35
2017-03-23T09:33:45.575Z,35
2017-03-23T09:34:45.299Z,35
2017-03-23T09:35:45.328Z,35
2017-03-23T09:36:45.352Z,35
2017-03-23T09:37:45.301Z,35
2017-03-23T09:38:45.131Z,35
2017-03-23T09:39:45.746Z,35
2017-03-23T09:40:45.768Z,40
2017-03-23T09:41:45.478Z,35
2017-03-23T09:42:45.455Z,35
2017-03-23T09:43:45.551Z,35
2017-03-23T09:44:45.575Z,35
2017-03-23T09:45:45.296Z,35
2017-03-23T09:46:45.933Z,35
2017-03-23T09:47:46.221Z,35
2017-03-23T09:48:45.689Z,35
2017-03-23T09:49:46.025Z,35
2017-03-23T09:50:45.427Z,35
2017-03-23T09:51:45.776Z,30
2017-03-23T09:52:46.369Z,35
2017-03-23T09:53:45.514Z,35
2017-03-23T09:54:45.543Z,35
2017-03-23T09:55:45.904Z,40
2017-03-23T09:56:45.909Z,35
2017-03-23T09:57:45.575Z,35
2017-03-23T09:58:46.278Z,35
2017-03-23T09:59:46.302Z,35
2017-03-23T10:00:46.334Z,35
2017-03-23T10:01:46.066Z,35
2017-03-23T10:02:46.636Z,35
2017-03-23T10:03:46.105Z,35
2017-03-23T10:04:45.818Z,35
2017-03-23T10:05:46.475Z,35
2017-03-23T10:06:46.187Z,35
2017-03-23T10:07:46.208Z,35
2017-03-23T10:08:46.799Z,35
2017-03-23T10:09:46.316Z,35
2017-03-23T10:10:46.603Z,35
2017-03-23T10:11:46.635Z,35
2017-03-23T10:12:46.672Z,35
2017-03-23T10:13:46.628Z,40
2017-03-23T10:14:46.094Z,40
2017-03-23T10:15:46.440Z,35
2017-03-23T10:16:46.474Z,35
2017-03-23T10:17:46.497Z,35
2017-03-23T10:18:47.080Z,40
2017-03-23T10:19:46.866Z,40
2017-03-23T10:20:46.608Z,40
2017-03-23T10:21:46.603Z,45
2017-03-23T10:22:46.319Z,40
2017-03-23T10:23:47.220Z,40
2017-03-23T10:24:46.684Z,40
2017-03-23T10:25:47.021Z,45
2017-03-23T10:26:47.063Z,45
2017-03-23T10:27:46.457Z,45
2017-03-23T10:28:47.383Z,45
2017-03-23T10:29:46.841Z,45
2017-03-23T10:30:46.855Z,45
2017-03-23T10:31:47.194Z,45
2017-03-23T10:32:47.236Z,45
2017-03-23T10:33:47.235Z,50
2017-03-23T10:34:47.284Z,50
2017-03-23T10:35:46.689Z,55
2017-03-23T10:36:47.021Z,50
2017-03-23T10:37:47.054Z,45
2017-03-23T10:38:47.327Z,40
2017-03-23T10:39:46.810Z,40
2017-03-23T10:40:47.453Z,45
2017-03-23T10:41:47.165Z,45
2017-03-23T10:42:47.190Z,50
2017-03-23T10:43:47.474Z,40
2017-03-23T10:44:46.939Z,45
2017-03-23T10:45:47.593Z,50
2017-03-23T10:46:47.309Z,55
2017-03-23T10:47:47.335Z,55
2017-03-23T10:48:47.302Z,60
2017-03-23T10:49:47.393Z,55
2017-03-23T10:50:47.740Z,55
2017-03-23T10:51:47.452Z,55
2017-03-23T10:52:47.790Z,50
2017-03-23T10:53:48.073Z,50
2017-03-23T10:54:47.523Z,55
2017-03-23T10:55:47.872Z,55
2017-03-23T10:56:47.597Z,55
2017-03-23T10:57:47.338Z,55
2017-03-23T10:58:47.900Z,60
2017-03-23T10:59:47.991Z,55
2017-03-23T11:00:47.708Z,55
2017-03-23T11:01:48.045Z,60
2017-03-23T11:02:47.753Z,60
2017-03-23T11:03:48.364Z,60
2017-03-23T11:04:47.822Z,60
2017-03-23T11:05:47.840Z,60
2017-03-23T11:06:47.869Z,60
2017-03-23T11:07:47.281Z,60
2017-03-23T11:08:47.877Z,60
2017-03-23T11:09:47.650Z,60
2017-03-23T11:10:48.003Z,60
2017-03-23T11:11:48.324Z,65
2017-03-23T11:12:48.041Z,75
2017-03-23T11:13:48.321Z,80
2017-03-23T11:14:48.104Z,80
2017-03-23T11:15:48.446Z,85
2017-03-23T11:16:48.479Z,85
2017-03-23T11:17:48.488Z,90
2017-03-23T11:18:48.781Z,100
2017-03-23T11:19:48.247Z,100
2017-03-23T11:20:48.607Z,100
2017-03-23T11:21:47.996Z,100
2017-03-23T11:22:48.358Z,105
2017-03-23T11:23:48.616Z,95
2017-03-23T11:24:48.685Z,105
2017-03-23T11:25:48.731Z,105
2017-03-23T11:26:47.819Z,70
2017-03-23T11:27:48.787Z,70
2017-03-23T11:28:48.749Z,100
2017-03-23T11:29:48.838Z,125
2017-03-23T11:30:48.874Z,145
2017-03-23T11:31:48.580Z,130
2017-03-23T11:32:48.615Z,125
2017-03-23T11:33:48.897Z,105
2017-03-23T11:34:48.669Z,110
2017-03-23T11:35:49.018Z,120
2017-03-23T11:36:48.413Z,100
2017-03-23T11:37:48.756Z,100
2017-03-23T11:38:48.408Z,120
2017-03-23T11:39:48.814Z,120
2017-03-23T11:40:48.842Z,120
2017-03-23T11:41:49.191Z,110
2017-03-23T11:42:48.270Z,90
2017-03-23T11:43:49.491Z,90
2017-03-23T11:44:49.268Z,105
2017-03-23T11:45:48.677Z,125
2017-03-23T11:46:48.706Z,105
2017-03-23T11:47:49.359Z,115
2017-03-23T11:48:49.636Z,135
2017-03-23T11:49:48.788Z,145
2017-03-23T11:50:49.137Z,165
2017-03-23T11:51:49.476Z,150
2017-03-23T11:52:48.879Z,130
2017-03-23T11:53:49.155Z,120
2017-03-23T11:54:49.252Z,115
2017-03-23T11:55:48.968Z,155
2017-03-23T11:56:49.630Z,155
2017-03-23T11:57:49.018Z,70
2017-03-23T11:58:49.933Z,55
2017-03-23T11:59:49.712Z,65
2017-03-23T12:00:49.733Z,65
2017-03-23T12:01:49.771Z,70
2017-03-23T12:02:49.780Z,145
2017-03-23T12:03:50.082Z,60
2017-03-23T12:04:49.223Z,55
2017-03-23T12:05:49.264Z,55
2017-03-23T12:06:49.904Z,50
2017-03-23T12:07:49.941Z,50
2017-03-23T12:08:50.223Z,60
2017-03-23T12:09:49.380Z,65
2017-03-23T12:10:49.720Z,70
2017-03-23T12:11:49.740Z,75
2017-03-23T12:12:49.466Z,70
2017-03-23T12:13:49.747Z,75
2017-03-23T12:14:49.834Z,75
2017-03-23T12:15:50.179Z,80
2017-03-23T12:16:49.896Z,85
2017-03-23T12:17:50.238Z,75
2017-03-23T12:18:49.884Z,60
2017-03-23T12:19:49.971Z,55
2017-03-23T12:20:50.016Z,55
2017-03-23T12:21:50.360Z,55
2017-03-23T12:22:50.369Z,60
2017-03-23T12:23:50.033Z,70
2017-03-23T12:24:50.476Z,70
2017-03-23T12:25:50.159Z,70
2017-03-23T12:26:50.507Z,70
2017-03-23T12:27:50.217Z,70
2017-03-23T12:28:50.501Z,140
2017-03-23T12:29:50.582Z,150
2017-03-23T12:30:50.623Z,165
2017-03-23T12:31:50.336Z,160
2017-03-23T12:32:50.361Z,140
2017-03-23T12:33:50.655Z,125
2017-03-23T12:34:50.723Z,95
2017-03-23T12:35:50.450Z,90
2017-03-23T12:36:50.485Z,135
2017-03-23T12:37:50.828Z,145
2017-03-23T12:38:50.481Z,155
2017-03-23T12:39:50.250Z,150
2017-03-23T12:40:50.290Z,135
2017-03-23T12:41:50.331Z,150
2017-03-23T12:42:50.961Z,150
2017-03-23T12:43:51.253Z,145
2017-03-23T12:44:51.025Z,120
2017-03-23T12:45:50.747Z,90
2017-03-23T12:46:51.094Z,105
2017-03-23T12:47:50.821Z,110
2017-03-23T12:48:51.084Z,130
2017-03-23T12:49:50.873Z,130
2017-03-23T12:50:50.626Z,130
2017-03-23T12:51:51.234Z,125
2017-03-23T12:52:51.267Z,120
2017-03-23T12:53:51.554Z,120
2017-03-23T12:54:51.348Z,115
2017-03-23T12:55:51.045Z,115
2017-03-23T12:56:50.463Z,110
2017-03-23T12:57:51.108Z,115
2017-03-23T12:58:51.705Z,115
2017-03-23T12:59:51.173Z,110
2017-03-23T13:00:51.201Z,115
2017-03-23T13:01:51.230Z,115
2017-03-23T13:02:51.267Z,75
2017-03-23T13:03:51.850Z,130
2017-03-23T13:04:51.348Z,135
2017-03-23T13:05:51.349Z,135
2017-03-23T13:06:51.699Z,135
2017-03-23T13:07:51.415Z,95
2017-03-23T13:08:52.023Z,120
2017-03-23T13:09:51.160Z,120
2017-03-23T13:10:51.514Z,115
2017-03-23T13:11:51.553Z,110
2017-03-23T13:12:51.882Z,110
2017-03-23T13:13:52.218Z,115
2017-03-23T13:14:51.688Z,115
2017-03-23T13:15:51.976Z,120
2017-03-23T13:16:52.014Z,115
2017-03-23T13:17:52.030Z,105
2017-03-23T13:18:52.330Z,110
2017-03-23T13:19:51.480Z,115
2017-03-23T13:20:51.229Z,115
2017-03-23T13:21:51.859Z,115
2017-03-23T13:22:51.888Z,115
2017-03-23T13:23:52.486Z,115
2017-03-23T13:24:51.948Z,60
2017-03-23T13:25:51.357Z,45
2017-03-23T13:26:51.685Z,50
2017-03-23T13:27:51.731Z,65
2017-03-23T13:28:52.083Z,70
2017-03-23T13:29:52.679Z,65
2017-03-23T13:30:52.133Z,65
2017-03-23T13:31:52.485Z,65
2017-03-23T13:32:51.881Z,70
2017-03-23T13:33:52.543Z,75
2017-03-23T13:34:51.878Z,75
2017-03-23T13:35:52.297Z,95
2017-03-23T13:36:52.636Z,120
2017-03-23T13:37:52.363Z,115
2017-03-23T13:38:52.686Z,140
2017-03-23T13:39:52.666Z,135
2017-03-23T13:40:52.768Z,120
2017-03-23T13:41:52.168Z,110
2017-03-23T13:42:52.501Z,110
2017-03-23T13:43:52.225Z,105
2017-03-23T13:44:52.198Z,110
2017-03-23T13:45:52.293Z,75
2017-03-23T13:46:52.960Z,55
2017-03-23T13:47:52.974Z,55
2017-03-23T13:48:52.697Z,65
2017-03-23T13:49:52.350Z,80
2017-03-23T13:50:52.762Z,100
2017-03-23T13:51:53.098Z,85
2017-03-23T13:52:53.136Z,115
2017-03-23T13:53:52.862Z,120
2017-03-23T13:54:53.127Z,125
2017-03-23T13:55:52.599Z,100
2017-03-23T13:56:52.312Z,85
2017-03-23T13:57:52.976Z,115
2017-03-23T13:58:53.009Z,70
2017-03-23T13:59:52.966Z,70
2017-03-23T14:00:53.383Z,65
2017-03-23T14:01:53.094Z,65
2017-03-23T14:02:53.129Z,70
2017-03-23T14:03:52.852Z,65
2017-03-23T14:04:53.439Z,65
2017-03-23T14:05:53.222Z,65
2017-03-23T14:06:52.937Z,65
2017-03-23T14:07:53.283Z,65
2017-03-23T14:08:53.309Z,60
2017-03-23T14:09:53.285Z,55
2017-03-23T14:10:53.374Z,60
2017-03-23T14:11:53.407Z,65
2017-03-23T14:12:53.747Z,65
2017-03-23T14:13:53.145Z,60
2017-03-23T14:14:53.757Z,60
2017-03-23T14:15:53.849Z,90
2017-03-23T14:16:53.554Z,95
2017-03-23T14:17:53.583Z,90
2017-03-23T14:18:53.935Z,95
2017-03-23T14:19:53.590Z,85
2017-03-23T14:20:53.993Z,85
2017-03-23T14:21:53.406Z,90
2017-03-23T14:22:54.050Z,105
2017-03-23T14:23:54.084Z,105
2017-03-23T14:24:53.736Z,105
2017-03-23T14:25:53.834Z,100